createdAt,value
2019-04-16T00:00:12.206Z,46.86
2019-04-16T00:02:55.157Z,47.40
2019-04-16T00:05:48.503Z,47.81
2019-04-16T00:08:28.203Z,48.39
2019-04-16T00:11:05.960Z,48.98
2019-04-16T00:14:03.402Z,49.40
2019-04-16T00:16:37.823Z,49.92
2019-04-16T00:19:09.508Z,49.80
2019-04-16T00:22:05.051Z,49.78
2019-04-16T00:24:39.551Z,49.79
2019-04-16T00:27:11.183Z,49.42
2019-04-16T00:29:43.500Z,49.25
2019-04-16T00:32:31.167Z,49.03
2019-04-16T00:35:04.069Z,48.88
2019-04-16T00:37:34.555Z,48.33
2019-04-16T00:40:07.130Z,48.11
2019-04-16T00:42:39.614Z,48.41
2019-04-16T00:45:12.638Z,48.58
2019-04-16T00:47:48.048Z,48.92
2019-04-16T00:50:18.655Z,48.97
2019-04-16T00:52:52.429Z,49.19
2019-04-16T00:55:23.236Z,49.70
2019-04-16T00:57:54.561Z,49.60
2019-04-16T01:00:30.613Z,49.84
2019-04-16T01:02:59.733Z,50.07
2019-04-16T01:05:35.055Z,50.45
2019-04-16T01:08:04.911Z,51.32
2019-04-16T01:10:35.747Z,52.54
2019-04-16T01:13:07.596Z,54.09
2019-04-16T01:15:42.733Z,54.86
2019-04-16T01:18:15.646Z,56.11
2019-04-16T01:20:48.706Z,57.59
2019-04-16T01:23:20.743Z,58.43
2019-04-16T01:25:55.586Z,58.94
2019-04-16T01:28:31.981Z,59.81
2019-04-16T01:31:22.071Z,60.41
2019-04-16T01:34:00.782Z,61.25
2019-04-16T01:36:45.709Z,61.61
2019-04-16T01:39:20.011Z,61.65
2019-04-16T01:41:53.499Z,61.93
2019-04-16T01:44:28.747Z,62.13
2019-04-16T01:46:58.114Z,62.86
2019-04-16T01:49:29.896Z,63.05
2019-04-16T01:52:00.905Z,63.59
2019-04-16T01:54:32.769Z,64.56
2019-04-16T01:57:05.973Z,65.03
2019-04-16T01:59:36.893Z,64.92
2019-04-16T02:02:07.950Z,64.95
2019-04-16T02:04:38.863Z,64.96
2019-04-16T02:07:12.015Z,65.17
2019-04-16T02:09:42.977Z,65.19
2019-04-16T02:12:15.009Z,65.33
2019-04-16T02:14:50.357Z,65.08
2019-04-16T02:17:26.724Z,64.96
2019-04-16T02:19:54.046Z,65.18
2019-04-16T02:22:27.062Z,65.78
2019-04-16T02:24:58.039Z,65.78
2019-04-16T02:27:31.136Z,65.94
2019-04-16T02:30:04.719Z,66.22
2019-04-16T02:32:35.067Z,66.66
2019-04-16T02:35:08.037Z,67.36
2019-04-16T02:37:41.431Z,67.36
2019-04-16T02:40:18.491Z,67.69
2019-04-16T02:42:47.145Z,67.88
2019-04-16T02:45:23.038Z,68.01
2019-04-16T02:47:52.202Z,68.73
2019-04-16T02:50:34.435Z,68.73
2019-04-16T02:53:37.970Z,68.87
2019-04-16T02:56:31.891Z,69.06
2019-04-16T02:59:11.892Z,69.70
2019-04-16T03:01:49.372Z,70.27
2019-04-16T03:04:26.657Z,70.50
2019-04-16T03:06:57.305Z,70.50
2019-04-16T03:09:30.461Z,70.53
2019-04-16T03:12:03.048Z,70.51
2019-04-16T03:14:36.348Z,70.51
2019-04-16T03:17:17.789Z,72.55
2019-04-16T03:19:51.282Z,72.55
2019-04-16T03:22:20.823Z,73.98
2019-04-16T03:24:52.349Z,75.42
2019-04-16T03:27:24.395Z,76.32
2019-04-16T03:30:02.985Z,76.36
2019-04-16T03:32:35.337Z,76.36
2019-04-16T03:35:05.668Z,76.70
2019-04-16T03:37:36.368Z,76.70
2019-04-16T03:40:16.590Z,78.00
2019-04-16T03:42:43.370Z,79.58
2019-04-16T03:45:15.916Z,79.37
2019-04-16T03:47:50.851Z,79.37
2019-04-16T03:50:21.073Z,78.85
2019-04-16T03:52:53.399Z,78.66
2019-04-16T03:55:26.261Z,78.15
2019-04-16T03:57:56.480Z,78.15
2019-04-16T04:00:28.439Z,78.13
2019-04-16T04:02:59.556Z,76.82
2019-04-16T04:05:35.106Z,77.43
2019-04-16T04:08:04.524Z,77.61
2019-04-16T04:10:37.115Z,77.61
2019-04-16T04:13:11.077Z,78.04
2019-04-16T04:15:42.646Z,78.71
2019-04-16T04:18:13.476Z,78.94
2019-04-16T04:20:49.663Z,78.78
2019-04-16T04:23:19.114Z,78.09
2019-04-16T04:25:51.559Z,77.43
2019-04-16T04:28:22.192Z,77.10
2019-04-16T04:30:57.735Z,76.91
2019-04-16T04:33:42.642Z,76.76
2019-04-16T04:36:12.863Z,76.01
2019-04-16T04:38:45.658Z,76.01
2019-04-16T04:41:46.329Z,75.45
2019-04-16T04:44:28.474Z,75.50
2019-04-16T04:47:00.266Z,75.50
2019-04-16T04:49:42.762Z,75.87
2019-04-16T04:52:15.231Z,75.87
2019-04-16T04:55:09.922Z,76.32
2019-04-16T04:57:42.790Z,76.32
2019-04-16T05:04:02.355Z,74.93
2019-04-16T05:06:50.574Z,73.99
2019-04-16T05:09:35.639Z,74.22
2019-04-16T05:12:08.080Z,74.22
2019-04-16T05:14:58.681Z,75.45
2019-04-16T05:20:24.145Z,75.32
2019-04-16T05:22:58.002Z,75.32
2019-04-16T05:25:34.469Z,74.52
2019-04-16T05:28:17.313Z,73.23
2019-04-16T05:31:07.180Z,71.73
2019-04-16T05:34:00.618Z,70.15
2019-04-16T05:36:34.454Z,69.77
2019-04-16T05:39:28.283Z,69.67
2019-04-16T05:42:02.003Z,69.37
2019-04-16T05:44:51.803Z,69.02
2019-04-16T05:47:41.618Z,68.48
2019-04-16T05:50:31.504Z,67.55
2019-04-16T05:53:02.105Z,65.43
2019-04-16T05:56:10.813Z,62.76
2019-04-16T05:59:02.713Z,59.41
2019-04-16T06:02:10.987Z,58.21
2019-04-16T06:05:00.806Z,57.08
2019-04-16T06:07:50.593Z,57.46
2019-04-16T06:10:40.486Z,56.73
2019-04-16T06:13:49.166Z,56.81
2019-04-16T06:16:38.416Z,56.95
2019-04-16T06:19:47.521Z,56.73
2019-04-16T06:23:00.656Z,55.82
2019-04-16T06:25:53.296Z,55.79
2019-04-16T06:29:01.983Z,55.22
2019-04-16T06:32:11.842Z,54.41
2019-04-16T06:35:07.668Z,54.19
2019-04-16T06:38:16.299Z,53.75
2019-04-16T06:41:25.001Z,53.45
2019-04-16T06:44:19.457Z,53.38
2019-04-16T06:47:28.404Z,52.62
2019-04-16T06:50:40.593Z,52.80
2019-04-16T06:53:39.006Z,52.56
2019-04-16T06:56:28.403Z,52.46
2019-04-16T06:59:37.374Z,51.74
2019-04-16T07:03:01.322Z,52.18
2019-04-16T07:05:42.855Z,51.54
2019-04-16T07:08:51.915Z,50.95
2019-04-16T07:11:57.784Z,50.24
2019-04-16T07:14:25.863Z,49.55
2019-04-16T07:17:08.675Z,49.00
2019-04-16T07:19:58.484Z,48.99
2019-04-16T07:22:52.741Z,49.10
2019-04-16T07:25:32.310Z,48.86
2019-04-16T07:28:33.532Z,48.74
2019-04-16T07:31:42.291Z,48.58
2019-04-16T07:34:45.173Z,48.08
2019-04-16T07:37:53.872Z,47.83
2019-04-16T07:41:02.566Z,47.70
2019-04-16T07:44:11.415Z,47.39
2019-04-16T07:47:20.792Z,47.06
2019-04-16T07:50:32.235Z,46.31
2019-04-16T07:53:31.429Z,46.16
2019-04-16T07:56:24.022Z,45.88
2019-04-16T07:59:13.812Z,45.30
2019-04-16T08:02:03.631Z,44.38
2019-04-16T08:04:53.625Z,43.85
2019-04-16T08:07:43.490Z,44.10
2019-04-16T08:10:33.347Z,44.26
2019-04-16T08:16:07.639Z,43.87
2019-04-16T08:18:57.452Z,43.44
2019-04-16T08:21:47.348Z,42.50
2019-04-16T08:27:23.880Z,42.75
2019-04-16T08:30:15.024Z,42.18
2019-04-16T08:33:04.810Z,42.23
2019-04-16T08:35:54.613Z,41.58
2019-04-16T08:38:26.116Z,41.77
2019-04-16T08:41:20.309Z,41.87
2019-04-16T08:44:02.930Z,41.42
2019-04-16T08:46:43.537Z,41.47
2019-04-16T08:49:33.379Z,40.83
2019-04-16T08:52:23.189Z,41.17
2019-04-16T08:55:13.017Z,40.74
2019-04-16T08:58:05.869Z,41.03
2019-04-16T09:03:30.963Z,40.90
2019-04-16T09:06:20.753Z,40.49
2019-04-16T09:09:29.456Z,40.42
2019-04-16T09:12:19.290Z,40.00
2019-04-16T09:18:32.069Z,37.84
2019-04-16T09:21:02.557Z,36.91
2019-04-16T09:24:11.338Z,36.91
2019-04-16T09:30:00.398Z,36.74
2019-04-16T09:33:09.116Z,36.76
2019-04-16T09:36:17.863Z,36.57
2019-04-16T09:39:25.472Z,36.18
2019-04-16T09:42:15.319Z,36.18
2019-04-16T09:45:05.812Z,35.45
2019-04-16T09:47:55.692Z,35.52
2019-04-16T09:50:47.886Z,35.76
2019-04-16T09:53:34.025Z,35.88
2019-04-16T09:56:30.781Z,35.56
2019-04-16T09:59:39.495Z,35.48
2019-04-16T10:05:30.152Z,35.20
2019-04-16T10:08:12.612Z,35.19
2019-04-16T10:10:58.090Z,34.59
2019-04-16T10:13:38.546Z,34.55
2019-04-16T10:19:13.112Z,34.17
2019-04-16T10:22:02.874Z,34.56
2019-04-16T10:25:11.582Z,34.03
2019-04-16T10:28:08.362Z,33.51
2019-04-16T10:30:58.335Z,33.67
2019-04-16T10:33:48.131Z,33.59
2019-04-16T10:36:18.585Z,32.95
2019-04-16T10:39:27.342Z,32.96
2019-04-16T10:42:25.587Z,33.06
2019-04-16T10:45:34.190Z,33.19
2019-04-16T10:48:23.483Z,32.91
2019-04-16T10:51:32.172Z,33.14
2019-04-16T10:54:38.135Z,32.95
2019-04-16T10:57:30.292Z,31.72
2019-04-16T11:03:41.149Z,31.89
2019-04-16T11:06:49.791Z,31.78
2019-04-16T11:09:39.898Z,31.30
2019-04-16T11:12:29.846Z,31.53
2019-04-16T11:15:22.117Z,31.44
2019-04-16T11:18:11.910Z,31.14
2019-04-16T11:21:01.711Z,30.43
2019-04-16T11:23:51.599Z,29.82
2019-04-16T11:26:22.067Z,29.52
2019-04-16T11:29:12.153Z,29.14
2019-04-16T11:31:54.810Z,28.99
2019-04-16T11:34:44.568Z,29.26
2019-04-16T11:37:36.211Z,28.83
2019-04-16T11:40:17.462Z,28.87
2019-04-16T11:43:07.328Z,28.71
2019-04-16T11:45:57.091Z,28.20
2019-04-16T11:48:50.068Z,27.95
2019-04-16T11:51:38.492Z,27.55
2019-04-16T11:54:28.443Z,25.86
2019-04-16T11:57:18.280Z,26.07
2019-04-16T12:02:58.586Z,26.71
2019-04-16T12:06:07.289Z,25.87
2019-04-16T12:09:16.117Z,25.59
2019-04-16T12:12:13.068Z,25.84
2019-04-16T12:15:21.734Z,25.80
2019-04-16T12:18:11.061Z,25.86
2019-04-16T12:21:19.730Z,25.58
2019-04-16T12:24:28.419Z,25.25
2019-04-16T12:27:37.065Z,25.23
2019-04-16T12:30:45.762Z,25.06
2019-04-16T12:33:54.496Z,25.23
2019-04-16T12:36:55.696Z,24.67
2019-04-16T12:40:04.424Z,23.99
2019-04-16T12:43:06.211Z,23.82
2019-04-16T12:46:14.921Z,23.40
2019-04-16T12:49:23.561Z,23.06
2019-04-16T12:52:32.209Z,23.32
2019-04-16T12:55:32.481Z,22.62
2019-04-16T12:58:34.435Z,22.66
2019-04-16T13:01:43.204Z,22.86
2019-04-16T13:04:51.904Z,22.24
2019-04-16T13:07:41.205Z,21.80
2019-04-16T13:10:41.161Z,21.15
2019-04-16T13:13:49.811Z,21.17
2019-04-16T13:16:58.479Z,21.04
2019-04-16T13:20:07.152Z,20.77
2019-04-16T13:22:58.290Z,20.68
2019-04-16T13:25:57.359Z,20.27
2019-04-16T13:28:47.229Z,20.82
2019-04-16T13:31:38.963Z,20.31
2019-04-16T13:34:20.429Z,20.11
2019-04-16T13:37:10.249Z,20.26
2019-04-16T13:42:48.170Z,19.83
2019-04-16T13:48:42.386Z,19.86
2019-04-16T13:51:24.175Z,19.59
2019-04-16T13:54:34.406Z,19.45
2019-04-16T13:57:14.288Z,19.30
2019-04-16T14:00:23.413Z,19.55
2019-04-16T14:03:15.685Z,18.97
2019-04-16T14:06:09.323Z,18.49
2019-04-16T14:08:48.373Z,18.16
2019-04-16T14:11:38.301Z,18.09
2019-04-16T14:14:28.095Z,17.84
2019-04-16T14:20:56.185Z,16.25
2019-04-16T14:23:48.753Z,15.07
2019-04-16T14:26:38.604Z,14.95
2019-04-16T14:29:28.384Z,14.50
2019-04-16T14:32:18.234Z,14.24
2019-04-16T14:35:07.623Z,13.75
2019-04-16T14:37:57.844Z,13.93
2019-04-16T14:40:35.088Z,13.51
2019-04-16T14:46:28.405Z,12.91
2019-04-16T14:49:09.502Z,12.58
2019-04-16T14:52:02.242Z,12.01
2019-04-16T14:55:09.723Z,11.59
2019-04-16T14:58:18.443Z,12.11
2019-04-16T15:01:07.696Z,12.03
2019-04-16T15:04:16.402Z,12.29
2019-04-16T15:06:58.150Z,12.46
2019-04-16T15:10:07.060Z,11.75
2019-04-16T15:13:15.708Z,11.97
2019-04-16T15:16:24.401Z,12.51
2019-04-16T15:19:33.075Z,12.54
2019-04-16T15:22:41.878Z,12.49
2019-04-16T15:25:44.150Z,11.94
2019-04-16T15:28:52.869Z,12.68
2019-04-16T15:32:05.432Z,11.79
2019-04-16T15:34:46.112Z,11.89
2019-04-16T15:37:44.912Z,11.48
2019-04-16T15:40:40.133Z,11.85
2019-04-16T15:43:23.332Z,12.28
2019-04-16T15:46:35.109Z,11.96
2019-04-16T15:49:29.011Z,12.58
2019-04-16T15:52:36.758Z,12.72
2019-04-16T15:55:33.131Z,12.33
2019-04-16T15:58:41.805Z,12.26
2019-04-16T16:01:50.505Z,12.36
2019-04-16T16:04:59.237Z,12.30
2019-04-16T16:08:08.030Z,12.80
2019-04-16T16:11:00.380Z,12.96
2019-04-16T16:13:50.274Z,13.18
2019-04-16T16:16:42.006Z,13.02
2019-04-16T16:19:23.264Z,12.87
2019-04-16T16:22:13.128Z,12.76
2019-04-16T16:25:05.873Z,12.82
2019-04-16T16:27:43.905Z,13.75
2019-04-16T16:30:24.035Z,13.77
2019-04-16T16:33:13.870Z,14.13
2019-04-16T16:35:57.071Z,14.36
2019-04-16T16:38:27.242Z,14.36
2019-04-16T16:41:17.035Z,14.10
2019-04-16T16:44:07.225Z,14.97
2019-04-16T16:47:15.956Z,14.97
2019-04-16T16:49:48.090Z,15.13
2019-04-16T16:52:56.769Z,15.45
2019-04-16T16:56:05.678Z,16.25
2019-04-16T16:59:14.301Z,16.59
2019-04-16T17:02:23.011Z,16.79
2019-04-16T17:08:01.700Z,17.56
2019-04-16T17:10:51.516Z,18.56
2019-04-16T17:13:41.344Z,18.89
2019-04-16T17:16:31.153Z,19.54
2019-04-16T17:19:20.983Z,20.84
2019-04-16T17:22:10.758Z,22.09
2019-04-16T17:25:00.633Z,23.44
2019-04-16T17:27:51.827Z,24.27
2019-04-16T17:30:33.389Z,25.16
2019-04-16T17:33:23.181Z,26.15
2019-04-16T17:36:13.110Z,27.31
2019-04-16T17:38:43.656Z,28.04
2019-04-16T17:41:37.542Z,28.67
2019-04-16T17:44:46.300Z,29.73
2019-04-16T17:47:57.223Z,30.70
2019-04-16T17:50:51.749Z,31.46
2019-04-16T17:53:41.329Z,32.06
2019-04-16T17:56:51.947Z,32.54
2019-04-16T18:02:35.243Z,33.62
2019-04-16T18:05:44.063Z,33.96
2019-04-16T18:08:52.735Z,34.36
2019-04-16T18:11:44.789Z,35.00
2019-04-16T18:14:40.763Z,35.47
2019-04-16T18:17:49.462Z,35.94
2019-04-16T18:20:56.822Z,36.48
2019-04-16T18:23:45.613Z,37.16
2019-04-16T18:26:55.160Z,37.69
2019-04-16T18:30:06.202Z,38.10
2019-04-16T18:33:05.577Z,38.22
2019-04-16T18:36:01.034Z,38.44
2019-04-16T18:41:47.168Z,39.05
2019-04-16T18:44:56.322Z,39.38
2019-04-16T18:47:42.905Z,39.71
2019-04-16T18:50:32.723Z,40.03
2019-04-16T18:53:22.574Z,40.51
2019-04-16T18:56:12.513Z,40.84
2019-04-16T18:58:42.934Z,40.57
2019-04-16T19:04:16.528Z,41.17
2019-04-16T19:06:47.165Z,41.16
2019-04-16T19:09:37.061Z,41.11
2019-04-16T19:12:26.963Z,41.75
2019-04-16T19:15:16.809Z,41.81
2019-04-16T19:18:18.950Z,42.13
2019-04-16T19:20:51.825Z,42.07
2019-04-16T19:23:33.615Z,41.98
2019-04-16T19:26:23.455Z,41.27
2019-04-16T19:29:14.549Z,41.72
2019-04-16T19:31:54.959Z,41.93
2019-04-16T19:34:34.502Z,42.33
2019-04-16T19:37:24.305Z,42.94
2019-04-16T19:40:15.598Z,42.32
2019-04-16T19:43:02.605Z,41.77
2019-04-16T19:45:35.392Z,41.49
2019-04-16T19:48:35.321Z,41.45
2019-04-16T19:51:19.608Z,41.88
2019-04-16T19:54:00.249Z,42.51
2019-04-16T19:56:51.392Z,42.83
2019-04-16T19:59:33.313Z,42.97
2019-04-16T20:02:23.143Z,43.13
2019-04-16T20:04:54.147Z,43.15
2019-04-16T20:07:37.202Z,43.52
2019-04-16T20:10:27.013Z,43.65
2019-04-16T20:13:16.861Z,43.91
2019-04-16T20:15:47.358Z,44.44
2019-04-16T20:18:50.164Z,44.70
2019-04-16T20:21:20.147Z,45.20
2019-04-16T20:23:56.281Z,44.72
2019-04-16T20:26:46.092Z,44.64
2019-04-16T20:29:35.999Z,44.86
2019-04-16T20:35:11.704Z,45.48
2019-04-16T20:38:01.546Z,45.68
2019-04-16T20:40:51.364Z,45.96
2019-04-16T20:43:41.200Z,44.96
2019-04-16T20:46:31.040Z,43.98
2019-04-16T20:49:20.902Z,43.79
2019-04-16T20:52:10.811Z,43.78
2019-04-16T20:57:27.725Z,44.43
2019-04-16T21:03:04.781Z,44.48
2019-04-16T21:05:57.805Z,44.64
2019-04-16T21:08:49.470Z,44.10
2019-04-16T21:11:41.017Z,43.09
2019-04-16T21:17:13.798Z,41.67
2019-04-16T21:20:04.041Z,41.59
2019-04-16T21:22:57.628Z,41.73
2019-04-16T21:25:37.495Z,41.74
2019-04-16T21:28:31.947Z,42.25
2019-04-16T21:31:21.557Z,42.22
2019-04-16T21:34:30.234Z,42.24
2019-04-16T21:40:25.985Z,42.44
2019-04-16T21:43:27.852Z,42.50
2019-04-16T21:45:59.115Z,42.23
2019-04-16T21:48:50.661Z,42.26
2019-04-16T21:52:01.608Z,42.61
2019-04-16T21:54:51.409Z,42.57
2019-04-16T21:57:42.876Z,42.65
2019-04-16T22:00:51.614Z,42.72
2019-04-16T22:03:42.916Z,42.09
2019-04-16T22:09:25.403Z,41.84
2019-04-16T22:12:16.188Z,42.17
2019-04-16T22:14:58.643Z,41.80
2019-04-16T22:17:48.435Z,41.86
2019-04-16T22:20:38.260Z,41.75
2019-04-16T22:23:28.619Z,42.37
2019-04-16T22:26:18.498Z,42.22
2019-04-16T22:29:08.270Z,41.88
2019-04-16T22:32:11.169Z,41.81
2019-04-16T22:34:40.448Z,41.91
2019-04-16T22:37:30.277Z,41.69
2019-04-16T22:40:38.902Z,40.99
2019-04-16T22:43:47.603Z,41.38
2019-04-16T22:46:40.452Z,41.58
2019-04-16T22:49:40.948Z,40.78
2019-04-16T22:53:02.714Z,40.05
2019-04-16T22:55:56.387Z,40.23
2019-04-16T22:58:48.928Z,39.38
2019-04-16T23:07:44.563Z,38.69
2019-04-16T23:10:17.832Z,38.20
2019-04-16T23:13:00.366Z,38.59
2019-04-16T23:15:32.650Z,38.22
2019-04-16T23:18:22.458Z,37.85
2019-04-16T23:21:12.224Z,38.14
2019-04-16T23:24:02.050Z,38.28
2019-04-16T23:26:33.292Z,37.92
2019-04-16T23:29:12.543Z,37.57
2019-04-16T23:31:56.028Z,37.39
2019-04-16T23:34:37.996Z,36.88
2019-04-16T23:37:14.989Z,36.33
2019-04-16T23:40:07.472Z,36.36
2019-04-16T23:43:15.377Z,36.36
2019-04-16T23:46:24.094Z,36.73
2019-04-16T23:49:32.792Z,37.24
2019-04-16T23:52:26.742Z,37.62
2019-04-16T23:55:35.422Z,37.02
2019-04-16T23:58:44.088Z,37.19
